sensor_id;sensor_type;location;lat;lon;timestamp;P1;durP1;ratioP1;P2;durP2;ratioP2
1382;SDS011;685;47.196;11.880;2022-12-07T00:00:34;3.80;;;2.77;;
1382;SDS011;685;47.196;11.880;2022-12-07T00:03:02;3.50;;;2.20;;
1382;SDS011;685;47.196;11.880;2022-12-07T00:05:29;3.17;;;2.30;;
1382;SDS011;685;47.196;11.880;2022-12-07T00:07:56;2.87;;;2.13;;
1382;SDS011;685;47.196;11.880;2022-12-07T00:10:22;1.83;;;1.60;;
1382;SDS011;685;47.196;11.880;2022-12-07T00:12:49;2.47;;;1.60;;
1382;SDS011;685;47.196;11.880;2022-12-07T00:15:16;2.97;;;1.67;;
1382;SDS011;685;47.196;11.880;2022-12-07T00:17:43;1.63;;;1.20;;
1382;SDS011;685;47.196;11.880;2022-12-07T00:20:11;2.00;;;1.40;;
1382;SDS011;685;47.196;11.880;2022-12-07T00:22:38;1.37;;;1.17;;
1382;SDS011;685;47.196;11.880;2022-12-07T00:25:05;1.83;;;1.30;;
1382;SDS011;685;47.196;11.880;2022-12-07T00:27:32;2.03;;;1.53;;
1382;SDS011;685;47.196;11.880;2022-12-07T00:29:59;1.43;;;1.30;;
1382;SDS011;685;47.196;11.880;2022-12-07T00:32:26;1.63;;;1.40;;
1382;SDS011;685;47.196;11.880;2022-12-07T00:34:53;1.93;;;1.50;;
1382;SDS011;685;47.196;11.880;2022-12-07T00:37:21;1.60;;;1.40;;
1382;SDS011;685;47.196;11.880;2022-12-07T00:39:48;1.63;;;1.30;;
1382;SDS011;685;47.196;11.880;2022-12-07T00:42:14;1.70;;;1.10;;
1382;SDS011;685;47.196;11.880;2022-12-07T00:44:41;1.20;;;0.90;;
1382;SDS011;685;47.196;11.880;2022-12-07T00:47:08;1.90;;;1.23;;
1382;SDS011;685;47.196;11.880;2022-12-07T00:49:35;1.30;;;1.10;;
1382;SDS011;685;47.196;11.880;2022-12-07T00:52:02;1.20;;;0.70;;
1382;SDS011;685;47.196;11.880;2022-12-07T00:54:30;1.30;;;1.03;;
1382;SDS011;685;47.196;11.880;2022-12-07T00:56:57;2.07;;;1.00;;
1382;SDS011;685;47.196;11.880;2022-12-07T00:59:24;1.77;;;1.10;;
1382;SDS011;685;47.196;11.880;2022-12-07T01:01:51;1.73;;;1.27;;
1382;SDS011;685;47.196;11.880;2022-12-07T01:04:18;2.37;;;1.43;;
1382;SDS011;685;47.196;11.880;2022-12-07T01:06:45;1.10;;;0.90;;
1382;SDS011;685;47.196;11.880;2022-12-07T01:09:11;3.27;;;1.17;;
1382;SDS011;685;47.196;11.880;2022-12-07T01:11:40;1.40;;;1.00;;
1382;SDS011;685;47.196;11.880;2022-12-07T01:14:07;2.00;;;1.10;;
1382;SDS011;685;47.196;11.880;2022-12-07T01:16:35;1.10;;;0.83;;
1382;SDS011;685;47.196;11.880;2022-12-07T01:19:02;1.30;;;0.80;;
1382;SDS011;685;47.196;11.880;2022-12-07T01:21:30;1.03;;;0.80;;
1382;SDS011;685;47.196;11.880;2022-12-07T01:23:59;2.07;;;0.93;;
1382;SDS011;685;47.196;11.880;2022-12-07T01:26:27;1.60;;;1.30;;
1382;SDS011;685;47.196;11.880;2022-12-07T01:28:55;1.10;;;0.90;;
1382;SDS011;685;47.196;11.880;2022-12-07T01:31:25;1.90;;;1.60;;
1382;SDS011;685;47.196;11.880;2022-12-07T01:33:53;2.30;;;2.10;;
1382;SDS011;685;47.196;11.880;2022-12-07T01:36:21;1.53;;;1.40;;
1382;SDS011;685;47.196;11.880;2022-12-07T01:38:50;2.27;;;1.90;;
1382;SDS011;685;47.196;11.880;2022-12-07T01:41:18;2.87;;;1.60;;
1382;SDS011;685;47.196;11.880;2022-12-07T01:46:49;2.73;;;2.27;;
1382;SDS011;685;47.196;11.880;2022-12-07T01:49:24;1.47;;;1.33;;
1382;SDS011;685;47.196;11.880;2022-12-07T01:51:57;2.53;;;1.40;;
1382;SDS011;685;47.196;11.880;2022-12-07T01:54:29;1.47;;;1.20;;
1382;SDS011;685;47.196;11.880;2022-12-07T01:56:57;1.67;;;1.10;;
1382;SDS011;685;47.196;11.880;2022-12-07T01:59:26;2.10;;;1.23;;
1382;SDS011;685;47.196;11.880;2022-12-07T02:01:53;1.70;;;1.33;;
1382;SDS011;685;47.196;11.880;2022-12-07T02:04:22;7.67;;;4.27;;
1382;SDS011;685;47.196;11.880;2022-12-07T02:06:49;2.23;;;1.60;;
1382;SDS011;685;47.196;11.880;2022-12-07T02:09:17;2.70;;;1.87;;
1382;SDS011;685;47.196;11.880;2022-12-07T02:11:44;1.93;;;1.60;;
1382;SDS011;685;47.196;11.880;2022-12-07T02:14:11;1.43;;;1.00;;
1382;SDS011;685;47.196;11.880;2022-12-07T02:16:41;1.40;;;1.13;;
1382;SDS011;685;47.196;11.880;2022-12-07T02:19:20;1.70;;;1.07;;
1382;SDS011;685;47.196;11.880;2022-12-07T02:22:09;1.20;;;0.90;;
1382;SDS011;685;47.196;11.880;2022-12-07T02:24:48;1.20;;;0.80;;
1382;SDS011;685;47.196;11.880;2022-12-07T02:30:13;1.63;;;1.17;;
1382;SDS011;685;47.196;11.880;2022-12-07T02:32:44;1.40;;;0.83;;
1382;SDS011;685;47.196;11.880;2022-12-07T02:35:17;1.00;;;0.70;;
1382;SDS011;685;47.196;11.880;2022-12-07T02:37:49;2.67;;;1.63;;
1382;SDS011;685;47.196;11.880;2022-12-07T02:40:25;2.93;;;1.77;;
1382;SDS011;685;47.196;11.880;2022-12-07T02:42:58;4.60;;;1.70;;
1382;SDS011;685;47.196;11.880;2022-12-07T02:45:31;2.20;;;1.47;;
1382;SDS011;685;47.196;11.880;2022-12-07T02:48:00;2.80;;;1.57;;
1382;SDS011;685;47.196;11.880;2022-12-07T02:50:30;3.00;;;2.07;;
1382;SDS011;685;47.196;11.880;2022-12-07T02:52:56;3.00;;;2.13;;
1382;SDS011;685;47.196;11.880;2022-12-07T02:55:25;2.40;;;1.70;;
1382;SDS011;685;47.196;11.880;2022-12-07T02:58:06;3.27;;;1.60;;
1382;SDS011;685;47.196;11.880;2022-12-07T03:00:54;1.80;;;1.67;;
1382;SDS011;685;47.196;11.880;2022-12-07T03:03:30;1.40;;;1.30;;
1382;SDS011;685;47.196;11.880;2022-12-07T03:06:04;1.97;;;1.33;;
1382;SDS011;685;47.196;11.880;2022-12-07T03:08:38;1.30;;;1.03;;
1382;SDS011;685;47.196;11.880;2022-12-07T03:11:14;1.50;;;0.83;;
1382;SDS011;685;47.196;11.880;2022-12-07T03:13:47;1.63;;;1.00;;
1382;SDS011;685;47.196;11.880;2022-12-07T03:16:21;1.10;;;0.93;;
1382;SDS011;685;47.196;11.880;2022-12-07T03:18:52;1.17;;;0.93;;
1382;SDS011;685;47.196;11.880;2022-12-07T03:21:23;1.90;;;1.33;;
1382;SDS011;685;47.196;11.880;2022-12-07T03:23:54;2.13;;;1.60;;
1382;SDS011;685;47.196;11.880;2022-12-07T03:26:26;1.50;;;1.40;;
1382;SDS011;685;47.196;11.880;2022-12-07T03:28:58;1.70;;;1.00;;
1382;SDS011;685;47.196;11.880;2022-12-07T03:31:31;1.27;;;1.03;;
1382;SDS011;685;47.196;11.880;2022-12-07T03:33:59;3.10;;;1.83;;
1382;SDS011;685;47.196;11.880;2022-12-07T03:36:31;2.30;;;2.00;;
1382;SDS011;685;47.196;11.880;2022-12-07T03:39:03;5.57;;;3.10;;
1382;SDS011;685;47.196;11.880;2022-12-07T03:41:39;7.13;;;3.50;;
1382;SDS011;685;47.196;11.880;2022-12-07T03:44:06;4.03;;;2.37;;
1382;SDS011;685;47.196;11.880;2022-12-07T03:46:36;1.80;;;1.70;;
1382;SDS011;685;47.196;11.880;2022-12-07T03:49:11;1.77;;;1.67;;
1382;SDS011;685;47.196;11.880;2022-12-07T03:51:46;3.13;;;2.23;;
1382;SDS011;685;47.196;11.880;2022-12-07T03:54:19;2.50;;;1.67;;
1382;SDS011;685;47.196;11.880;2022-12-07T03:56:49;2.43;;;1.33;;
1382;SDS011;685;47.196;11.880;2022-12-07T03:59:18;1.70;;;1.50;;
1382;SDS011;685;47.196;11.880;2022-12-07T04:01:52;2.07;;;1.83;;
1382;SDS011;685;47.196;11.880;2022-12-07T04:04:21;2.53;;;1.30;;
1382;SDS011;685;47.196;11.880;2022-12-07T04:06:49;1.53;;;1.17;;
1382;SDS011;685;47.196;11.880;2022-12-07T04:09:16;1.67;;;1.33;;
1382;SDS011;685;47.196;11.880;2022-12-07T04:11:43;1.70;;;1.20;;
1382;SDS011;685;47.196;11.880;2022-12-07T04:14:10;1.20;;;0.80;;
1382;SDS011;685;47.196;11.880;2022-12-07T04:16:46;1.77;;;1.00;;
1382;SDS011;685;47.196;11.880;2022-12-07T04:19:16;1.80;;;1.43;;
1382;SDS011;685;47.196;11.880;2022-12-07T04:21:44;2.10;;;1.63;;
1382;SDS011;685;47.196;11.880;2022-12-07T04:24:11;3.67;;;1.37;;
1382;SDS011;685;47.196;11.880;2022-12-07T04:26:39;2.17;;;1.40;;
1382;SDS011;685;47.196;11.880;2022-12-07T04:29:06;1.40;;;1.30;;
1382;SDS011;685;47.196;11.880;2022-12-07T04:31:33;2.90;;;2.70;;
1382;SDS011;685;47.196;11.880;2022-12-07T04:34:00;3.10;;;2.53;;
1382;SDS011;685;47.196;11.880;2022-12-07T04:36:28;7.07;;;4.03;;
1382;SDS011;685;47.196;11.880;2022-12-07T04:38:55;4.40;;;4.00;;
1382;SDS011;685;47.196;11.880;2022-12-07T04:41:23;4.53;;;3.67;;
1382;SDS011;685;47.196;11.880;2022-12-07T04:43:53;2.90;;;2.70;;
1382;SDS011;685;47.196;11.880;2022-12-07T04:46:21;3.40;;;2.40;;
1382;SDS011;685;47.196;11.880;2022-12-07T04:48:48;3.40;;;2.53;;
1382;SDS011;685;47.196;11.880;2022-12-07T04:51:15;2.17;;;1.90;;
1382;SDS011;685;47.196;11.880;2022-12-07T04:53:47;2.20;;;2.00;;
1382;SDS011;685;47.196;11.880;2022-12-07T04:56:15;2.20;;;2.00;;
1382;SDS011;685;47.196;11.880;2022-12-07T04:58:43;3.13;;;2.87;;
1382;SDS011;685;47.196;11.880;2022-12-07T05:01:11;3.50;;;3.20;;
1382;SDS011;685;47.196;11.880;2022-12-07T05:03:39;5.50;;;5.03;;
1382;SDS011;685;47.196;11.880;2022-12-07T05:06:06;3.77;;;3.47;;
1382;SDS011;685;47.196;11.880;2022-12-07T05:08:34;3.30;;;3.00;;
1382;SDS011;685;47.196;11.880;2022-12-07T05:11:03;4.10;;;3.30;;
1382;SDS011;685;47.196;11.880;2022-12-07T05:13:31;3.90;;;3.13;;
1382;SDS011;685;47.196;11.880;2022-12-07T05:15:58;3.73;;;3.33;;
1382;SDS011;685;47.196;11.880;2022-12-07T05:18:25;3.83;;;3.33;;
1382;SDS011;685;47.196;11.880;2022-12-07T05:20:52;4.07;;;3.27;;
1382;SDS011;685;47.196;11.880;2022-12-07T05:23:19;3.70;;;2.73;;
1382;SDS011;685;47.196;11.880;2022-12-07T05:25:46;3.83;;;3.20;;
1382;SDS011;685;47.196;11.880;2022-12-07T05:28:14;3.60;;;2.97;;
1382;SDS011;685;47.196;11.880;2022-12-07T05:30:41;5.40;;;3.10;;
1382;SDS011;685;47.196;11.880;2022-12-07T05:33:08;10.70;;;9.57;;
1382;SDS011;685;47.196;11.880;2022-12-07T05:35:35;4.47;;;4.07;;
1382;SDS011;685;47.196;11.880;2022-12-07T05:38:02;4.80;;;3.77;;
1382;SDS011;685;47.196;11.880;2022-12-07T05:40:29;5.23;;;3.80;;
1382;SDS011;685;47.196;11.880;2022-12-07T05:42:56;4.33;;;3.90;;
1382;SDS011;685;47.196;11.880;2022-12-07T05:45:23;5.83;;;5.30;;
1382;SDS011;685;47.196;11.880;2022-12-07T05:47:50;7.10;;;6.40;;
1382;SDS011;685;47.196;11.880;2022-12-07T05:50:17;6.97;;;6.20;;
1382;SDS011;685;47.196;11.880;2022-12-07T05:52:44;6.03;;;5.40;;
1382;SDS011;685;47.196;11.880;2022-12-07T05:55:11;6.87;;;6.27;;
1382;SDS011;685;47.196;11.880;2022-12-07T05:57:38;4.97;;;4.57;;
1382;SDS011;685;47.196;11.880;2022-12-07T06:00:05;5.87;;;4.20;;
1382;SDS011;685;47.196;11.880;2022-12-07T06:02:33;5.17;;;4.10;;
1382;SDS011;685;47.196;11.880;2022-12-07T06:05:00;5.30;;;4.80;;
1382;SDS011;685;47.196;11.880;2022-12-07T06:07:27;5.63;;;4.67;;
1382;SDS011;685;47.196;11.880;2022-12-07T06:09:53;6.70;;;5.37;;
1382;SDS011;685;47.196;11.880;2022-12-07T06:12:20;4.97;;;4.57;;
1382;SDS011;685;47.196;11.880;2022-12-07T06:15:03;5.27;;;4.77;;
1382;SDS011;685;47.196;11.880;2022-12-07T06:17:31;7.57;;;6.00;;
1382;SDS011;685;47.196;11.880;2022-12-07T06:19:59;5.07;;;4.67;;
1382;SDS011;685;47.196;11.880;2022-12-07T06:22:26;4.70;;;4.13;;
1382;SDS011;685;47.196;11.880;2022-12-07T06:24:53;4.30;;;3.90;;
1382;SDS011;685;47.196;11.880;2022-12-07T06:27:20;3.67;;;3.37;;
1382;SDS011;685;47.196;11.880;2022-12-07T06:29:47;6.50;;;4.00;;
1382;SDS011;685;47.196;11.880;2022-12-07T06:32:13;5.83;;;4.57;;
1382;SDS011;685;47.196;11.880;2022-12-07T06:34:42;5.83;;;5.30;;
1382;SDS011;685;47.196;11.880;2022-12-07T06:37:09;5.57;;;3.87;;
1382;SDS011;685;47.196;11.880;2022-12-07T06:39:35;3.53;;;2.93;;
1382;SDS011;685;47.196;11.880;2022-12-07T06:42:03;4.03;;;3.63;;
1382;SDS011;685;47.196;11.880;2022-12-07T06:44:30;3.80;;;3.50;;
1382;SDS011;685;47.196;11.880;2022-12-07T06:46:57;3.77;;;3.47;;
1382;SDS011;685;47.196;11.880;2022-12-07T06:49:24;4.53;;;3.50;;
1382;SDS011;685;47.196;11.880;2022-12-07T06:51:52;5.93;;;4.37;;
1382;SDS011;685;47.196;11.880;2022-12-07T06:54:19;8.10;;;5.40;;
1382;SDS011;685;47.196;11.880;2022-12-07T06:56:46;5.50;;;5.00;;
1382;SDS011;685;47.196;11.880;2022-12-07T06:59:13;6.83;;;5.00;;
1382;SDS011;685;47.196;11.880;2022-12-07T07:01:40;7.80;;;5.60;;
1382;SDS011;685;47.196;11.880;2022-12-07T07:04:07;6.97;;;5.33;;
1382;SDS011;685;47.196;11.880;2022-12-07T07:06:34;6.67;;;5.97;;
1382;SDS011;685;47.196;11.880;2022-12-07T07:09:02;5.77;;;5.27;;
1382;SDS011;685;47.196;11.880;2022-12-07T07:11:29;5.97;;;5.37;;
1382;SDS011;685;47.196;11.880;2022-12-07T07:13:56;4.03;;;3.13;;
1382;SDS011;685;47.196;11.880;2022-12-07T07:16:27;6.43;;;4.20;;
1382;SDS011;685;47.196;11.880;2022-12-07T07:18:54;4.33;;;3.30;;
1382;SDS011;685;47.196;11.880;2022-12-07T07:21:20;4.00;;;3.40;;
1382;SDS011;685;47.196;11.880;2022-12-07T07:23:48;3.67;;;3.27;;
1382;SDS011;685;47.196;11.880;2022-12-07T07:26:16;4.33;;;3.90;;
1382;SDS011;685;47.196;11.880;2022-12-07T07:28:43;6.07;;;4.10;;
1382;SDS011;685;47.196;11.880;2022-12-07T07:31:10;5.07;;;4.57;;
1382;SDS011;685;47.196;11.880;2022-12-07T07:33:37;6.17;;;4.50;;
1382;SDS011;685;47.196;11.880;2022-12-07T07:36:04;9.30;;;6.87;;
1382;SDS011;685;47.196;11.880;2022-12-07T07:38:32;6.03;;;4.87;;
1382;SDS011;685;47.196;11.880;2022-12-07T07:40:59;6.90;;;5.30;;
1382;SDS011;685;47.196;11.880;2022-12-07T07:43:27;5.60;;;5.10;;
1382;SDS011;685;47.196;11.880;2022-12-07T07:45:54;6.83;;;5.50;;
1382;SDS011;685;47.196;11.880;2022-12-07T07:48:20;4.70;;;4.23;;
1382;SDS011;685;47.196;11.880;2022-12-07T07:50:50;8.30;;;5.80;;
1382;SDS011;685;47.196;11.880;2022-12-07T07:53:17;6.70;;;4.77;;
1382;SDS011;685;47.196;11.880;2022-12-07T07:55:49;6.43;;;4.37;;
1382;SDS011;685;47.196;11.880;2022-12-07T07:58:17;6.67;;;5.00;;
1382;SDS011;685;47.196;11.880;2022-12-07T08:00:45;8.63;;;4.80;;
1382;SDS011;685;47.196;11.880;2022-12-07T08:03:12;7.43;;;6.50;;
1382;SDS011;685;47.196;11.880;2022-12-07T08:05:39;6.73;;;6.07;;
1382;SDS011;685;47.196;11.880;2022-12-07T08:08:06;6.80;;;5.97;;
1382;SDS011;685;47.196;11.880;2022-12-07T08:10:33;8.10;;;6.63;;
1382;SDS011;685;47.196;11.880;2022-12-07T08:13:00;7.90;;;6.57;;
1382;SDS011;685;47.196;11.880;2022-12-07T08:15:40;9.70;;;5.53;;
1382;SDS011;685;47.196;11.880;2022-12-07T08:18:09;10.70;;;9.60;;
1382;SDS011;685;47.196;11.880;2022-12-07T08:20:46;10.50;;;6.87;;
1382;SDS011;685;47.196;11.880;2022-12-07T08:23:13;9.70;;;6.60;;
1382;SDS011;685;47.196;11.880;2022-12-07T08:25:40;6.80;;;6.00;;
1382;SDS011;685;47.196;11.880;2022-12-07T08:28:07;7.33;;;5.33;;
1382;SDS011;685;47.196;11.880;2022-12-07T08:30:33;8.83;;;6.50;;
1382;SDS011;685;47.196;11.880;2022-12-07T08:33:00;7.80;;;6.70;;
1382;SDS011;685;47.196;11.880;2022-12-07T08:35:27;10.40;;;7.37;;
1382;SDS011;685;47.196;11.880;2022-12-07T08:37:55;7.17;;;6.40;;
1382;SDS011;685;47.196;11.880;2022-12-07T08:40:22;8.60;;;6.47;;
1382;SDS011;685;47.196;11.880;2022-12-07T08:42:49;7.70;;;6.67;;
1382;SDS011;685;47.196;11.880;2022-12-07T08:45:17;8.57;;;7.73;;
1382;SDS011;685;47.196;11.880;2022-12-07T08:47:46;10.40;;;7.40;;
1382;SDS011;685;47.196;11.880;2022-12-07T08:50:16;8.83;;;7.63;;
1382;SDS011;685;47.196;11.880;2022-12-07T08:52:43;8.77;;;7.87;;
1382;SDS011;685;47.196;11.880;2022-12-07T08:55:12;7.00;;;5.40;;
1382;SDS011;685;47.196;11.880;2022-12-07T08:57:39;9.80;;;7.00;;
1382;SDS011;685;47.196;11.880;2022-12-07T09:00:08;9.00;;;7.57;;
1382;SDS011;685;47.196;11.880;2022-12-07T09:02:35;8.73;;;6.60;;
1382;SDS011;685;47.196;11.880;2022-12-07T09:05:02;8.33;;;7.50;;
1382;SDS011;685;47.196;11.880;2022-12-07T09:07:30;11.93;;;10.37;;
1382;SDS011;685;47.196;11.880;2022-12-07T09:09:58;9.13;;;7.83;;
1382;SDS011;685;47.196;11.880;2022-12-07T09:12:26;8.87;;;7.53;;
1382;SDS011;685;47.196;11.880;2022-12-07T09:14:53;7.80;;;7.10;;
1382;SDS011;685;47.196;11.880;2022-12-07T09:17:19;12.83;;;8.07;;
1382;SDS011;685;47.196;11.880;2022-12-07T09:19:46;7.67;;;6.90;;
1382;SDS011;685;47.196;11.880;2022-12-07T09:22:13;9.77;;;6.67;;
1382;SDS011;685;47.196;11.880;2022-12-07T09:24:40;6.77;;;5.67;;
1382;SDS011;685;47.196;11.880;2022-12-07T09:27:07;7.33;;;5.60;;
1382;SDS011;685;47.196;11.880;2022-12-07T09:29:35;7.07;;;6.10;;
1382;SDS011;685;47.196;11.880;2022-12-07T09:32:02;6.43;;;5.77;;
1382;SDS011;685;47.196;11.880;2022-12-07T09:34:30;10.33;;;7.07;;
1382;SDS011;685;47.196;11.880;2022-12-07T09:36:57;9.03;;;6.20;;
1382;SDS011;685;47.196;11.880;2022-12-07T09:39:25;7.10;;;5.53;;
1382;SDS011;685;47.196;11.880;2022-12-07T09:41:52;7.60;;;6.57;;
1382;SDS011;685;47.196;11.880;2022-12-07T09:44:20;10.03;;;7.33;;
1382;SDS011;685;47.196;11.880;2022-12-07T09:46:51;8.03;;;6.43;;
1382;SDS011;685;47.196;11.880;2022-12-07T09:49:19;7.37;;;5.93;;
1382;SDS011;685;47.196;11.880;2022-12-07T09:51:47;6.67;;;5.00;;
1382;SDS011;685;47.196;11.880;2022-12-07T09:54:23;6.57;;;4.87;;
1382;SDS011;685;47.196;11.880;2022-12-07T09:56:50;6.37;;;5.37;;
1382;SDS011;685;47.196;11.880;2022-12-07T09:59:17;4.93;;;4.13;;
1382;SDS011;685;47.196;11.880;2022-12-07T10:01:45;3.27;;;2.80;;
1382;SDS011;685;47.196;11.880;2022-12-07T10:04:15;4.07;;;3.03;;
1382;SDS011;685;47.196;11.880;2022-12-07T10:06:45;2.57;;;1.90;;
1382;SDS011;685;47.196;11.880;2022-12-07T10:09:13;5.30;;;3.00;;
1382;SDS011;685;47.196;11.880;2022-12-07T10:11:57;7.67;;;6.90;;
1382;SDS011;685;47.196;11.880;2022-12-07T10:14:30;8.90;;;6.50;;
1382;SDS011;685;47.196;11.880;2022-12-07T10:16:58;5.17;;;4.67;;
1382;SDS011;685;47.196;11.880;2022-12-07T10:19:27;3.90;;;3.50;;
1382;SDS011;685;47.196;11.880;2022-12-07T10:22:03;3.50;;;3.00;;
1382;SDS011;685;47.196;11.880;2022-12-07T10:24:35;5.80;;;4.30;;
1382;SDS011;685;47.196;11.880;2022-12-07T10:27:04;4.80;;;3.93;;
1382;SDS011;685;47.196;11.880;2022-12-07T10:29:32;6.60;;;4.00;;
1382;SDS011;685;47.196;11.880;2022-12-07T10:32:01;3.83;;;3.40;;
1382;SDS011;685;47.196;11.880;2022-12-07T10:34:31;5.83;;;4.17;;
1382;SDS011;685;47.196;11.880;2022-12-07T10:37:07;4.93;;;3.63;;
1382;SDS011;685;47.196;11.880;2022-12-07T10:39:41;4.63;;;4.20;;
1382;SDS011;685;47.196;11.880;2022-12-07T10:42:15;4.60;;;3.77;;
1382;SDS011;685;47.196;11.880;2022-12-07T10:44:44;6.40;;;4.20;;
1382;SDS011;685;47.196;11.880;2022-12-07T10:47:14;5.90;;;4.30;;
1382;SDS011;685;47.196;11.880;2022-12-07T10:55:56;5.10;;;3.63;;
1382;SDS011;685;47.196;11.880;2022-12-07T10:58:42;6.10;;;5.03;;
1382;SDS011;685;47.196;11.880;2022-12-07T11:01:21;6.13;;;5.20;;
1382;SDS011;685;47.196;11.880;2022-12-07T11:03:54;5.10;;;4.60;;
1382;SDS011;685;47.196;11.880;2022-12-07T11:06:34;9.40;;;6.43;;
1382;SDS011;685;47.196;11.880;2022-12-07T11:12:14;5.07;;;3.90;;
1382;SDS011;685;47.196;11.880;2022-12-07T11:14:49;3.37;;;3.00;;
1382;SDS011;685;47.196;11.880;2022-12-07T11:17:24;4.10;;;3.27;;
1382;SDS011;685;47.196;11.880;2022-12-07T11:20:01;4.07;;;3.73;;
1382;SDS011;685;47.196;11.880;2022-12-07T11:22:34;4.37;;;3.30;;
1382;SDS011;685;47.196;11.880;2022-12-07T11:25:16;5.30;;;3.60;;
1382;SDS011;685;47.196;11.880;2022-12-07T11:27:53;3.70;;;3.33;;
1382;SDS011;685;47.196;11.880;2022-12-07T11:30:37;3.50;;;3.13;;
1382;SDS011;685;47.196;11.880;2022-12-07T11:33:14;4.53;;;3.13;;
1382;SDS011;685;47.196;11.880;2022-12-07T11:35:46;4.83;;;3.60;;
1382;SDS011;685;47.196;11.880;2022-12-07T11:38:30;5.80;;;3.30;;
1382;SDS011;685;47.196;11.880;2022-12-07T11:41:05;4.37;;;3.43;;
1382;SDS011;685;47.196;11.880;2022-12-07T11:43:41;4.43;;;3.20;;
1382;SDS011;685;47.196;11.880;2022-12-07T11:46:20;4.20;;;3.50;;
1382;SDS011;685;47.196;11.880;2022-12-07T11:48:52;3.77;;;2.83;;
1382;SDS011;685;47.196;11.880;2022-12-07T11:51:25;6.30;;;3.60;;
1382;SDS011;685;47.196;11.880;2022-12-07T11:53:53;5.07;;;3.57;;
1382;SDS011;685;47.196;11.880;2022-12-07T11:56:25;4.47;;;3.47;;
1382;SDS011;685;47.196;11.880;2022-12-07T11:58:54;6.23;;;3.77;;
1382;SDS011;685;47.196;11.880;2022-12-07T12:01:29;4.90;;;3.90;;
1382;SDS011;685;47.196;11.880;2022-12-07T12:04:06;4.97;;;3.90;;
1382;SDS011;685;47.196;11.880;2022-12-07T12:06:45;14.43;;;4.70;;
1382;SDS011;685;47.196;11.880;2022-12-07T12:09:13;6.63;;;4.53;;
1382;SDS011;685;47.196;11.880;2022-12-07T12:12:01;6.40;;;4.97;;
1382;SDS011;685;47.196;11.880;2022-12-07T12:14:43;5.03;;;4.53;;
1382;SDS011;685;47.196;11.880;2022-12-07T12:17:37;5.20;;;3.50;;
1382;SDS011;685;47.196;11.880;2022-12-07T12:20:23;5.00;;;3.80;;
1382;SDS011;685;47.196;11.880;2022-12-07T12:22:55;5.70;;;3.43;;
1382;SDS011;685;47.196;11.880;2022-12-07T12:25:27;4.30;;;3.40;;
1382;SDS011;685;47.196;11.880;2022-12-07T12:27:58;5.80;;;3.90;;
1382;SDS011;685;47.196;11.880;2022-12-07T12:30:29;4.33;;;3.93;;
1382;SDS011;685;47.196;11.880;2022-12-07T12:33:06;6.27;;;4.03;;
1382;SDS011;685;47.196;11.880;2022-12-07T12:35:40;8.47;;;5.20;;
1382;SDS011;685;47.196;11.880;2022-12-07T12:38:24;6.40;;;5.43;;
1382;SDS011;685;47.196;11.880;2022-12-07T12:40:58;4.30;;;3.70;;
1382;SDS011;685;47.196;11.880;2022-12-07T12:46:37;5.90;;;4.33;;
1382;SDS011;685;47.196;11.880;2022-12-07T12:49:30;4.70;;;3.83;;
1382;SDS011;685;47.196;11.880;2022-12-07T12:55:16;10.87;;;7.10;;
1382;SDS011;685;47.196;11.880;2022-12-07T12:57:46;8.27;;;7.50;;
1382;SDS011;685;47.196;11.880;2022-12-07T13:00:35;8.33;;;5.43;;
1382;SDS011;685;47.196;11.880;2022-12-07T13:03:02;8.47;;;6.10;;
1382;SDS011;685;47.196;11.880;2022-12-07T13:05:30;10.40;;;7.70;;
1382;SDS011;685;47.196;11.880;2022-12-07T13:07:58;7.40;;;5.80;;
1382;SDS011;685;47.196;11.880;2022-12-07T13:10:35;7.03;;;6.33;;
1382;SDS011;685;47.196;11.880;2022-12-07T13:18:59;11.00;;;9.90;;
1382;SDS011;685;47.196;11.880;2022-12-07T13:21:41;6.30;;;4.40;;
1382;SDS011;685;47.196;11.880;2022-12-07T13:24:10;6.17;;;4.50;;
1382;SDS011;685;47.196;11.880;2022-12-07T13:26:41;6.77;;;5.00;;
1382;SDS011;685;47.196;11.880;2022-12-07T13:29:10;5.20;;;4.70;;
1382;SDS011;685;47.196;11.880;2022-12-07T13:31:39;7.30;;;5.63;;
1382;SDS011;685;47.196;11.880;2022-12-07T13:36:58;5.80;;;5.23;;
1382;SDS011;685;47.196;11.880;2022-12-07T13:39:27;6.80;;;5.60;;
1382;SDS011;685;47.196;11.880;2022-12-07T13:41:55;7.00;;;5.33;;
1382;SDS011;685;47.196;11.880;2022-12-07T13:44:23;7.50;;;6.40;;
1382;SDS011;685;47.196;11.880;2022-12-07T13:46:53;5.70;;;5.10;;
1382;SDS011;685;47.196;11.880;2022-12-07T13:49:32;6.07;;;4.87;;
1382;SDS011;685;47.196;11.880;2022-12-07T13:52:12;6.20;;;5.60;;
1382;SDS011;685;47.196;11.880;2022-12-07T13:54:45;6.73;;;5.20;;
1382;SDS011;685;47.196;11.880;2022-12-07T13:57:13;8.67;;;5.30;;
1382;SDS011;685;47.196;11.880;2022-12-07T13:59:41;9.07;;;5.90;;
1382;SDS011;685;47.196;11.880;2022-12-07T14:02:17;7.20;;;5.47;;
1382;SDS011;685;47.196;11.880;2022-12-07T14:04:48;6.37;;;5.00;;
1382;SDS011;685;47.196;11.880;2022-12-07T14:07:22;7.23;;;5.57;;
1382;SDS011;685;47.196;11.880;2022-12-07T14:09:56;8.20;;;5.80;;
1382;SDS011;685;47.196;11.880;2022-12-07T14:12:24;7.30;;;5.73;;
1382;SDS011;685;47.196;11.880;2022-12-07T14:14:52;6.23;;;5.63;;
1382;SDS011;685;47.196;11.880;2022-12-07T14:17:20;6.03;;;4.87;;
1382;SDS011;685;47.196;11.880;2022-12-07T14:19:51;7.10;;;5.70;;
1382;SDS011;685;47.196;11.880;2022-12-07T14:22:22;6.23;;;5.17;;
1382;SDS011;685;47.196;11.880;2022-12-07T14:24:57;6.00;;;5.40;;
1382;SDS011;685;47.196;11.880;2022-12-07T14:27:30;7.70;;;6.50;;
1382;SDS011;685;47.196;11.880;2022-12-07T14:29:59;5.80;;;5.20;;
1382;SDS011;685;47.196;11.880;2022-12-07T14:32:28;9.43;;;6.00;;
1382;SDS011;685;47.196;11.880;2022-12-07T14:34:58;8.27;;;5.97;;
1382;SDS011;685;47.196;11.880;2022-12-07T14:37:26;8.90;;;6.40;;
1382;SDS011;685;47.196;11.880;2022-12-07T14:39:55;7.47;;;6.30;;
1382;SDS011;685;47.196;11.880;2022-12-07T14:42:23;7.10;;;5.87;;
1382;SDS011;685;47.196;11.880;2022-12-07T14:44:53;8.53;;;6.47;;
1382;SDS011;685;47.196;11.880;2022-12-07T14:47:20;7.57;;;5.77;;
1382;SDS011;685;47.196;11.880;2022-12-07T14:49:47;6.90;;;5.47;;
1382;SDS011;685;47.196;11.880;2022-12-07T14:52:16;11.00;;;5.63;;
1382;SDS011;685;47.196;11.880;2022-12-07T14:54:45;6.30;;;5.70;;
1382;SDS011;685;47.196;11.880;2022-12-07T14:57:12;7.27;;;5.30;;
1382;SDS011;685;47.196;11.880;2022-12-07T14:59:39;6.40;;;5.80;;
1382;SDS011;685;47.196;11.880;2022-12-07T15:02:06;7.63;;;6.03;;
1382;SDS011;685;47.196;11.880;2022-12-07T15:04:36;7.50;;;6.13;;
1382;SDS011;685;47.196;11.880;2022-12-07T15:07:03;9.30;;;6.87;;
1382;SDS011;685;47.196;11.880;2022-12-07T15:09:33;8.90;;;7.80;;
1382;SDS011;685;47.196;11.880;2022-12-07T15:12:00;8.43;;;6.47;;
1382;SDS011;685;47.196;11.880;2022-12-07T15:14:27;7.90;;;6.73;;
1382;SDS011;685;47.196;11.880;2022-12-07T15:16:54;6.75;;;5.68;;
1382;SDS011;685;47.196;11.880;2022-12-07T15:19:22;6.23;;;5.10;;
1382;SDS011;685;47.196;11.880;2022-12-07T15:21:51;7.87;;;6.40;;
1382;SDS011;685;47.196;11.880;2022-12-07T15:24:18;7.90;;;6.33;;
1382;SDS011;685;47.196;11.880;2022-12-07T15:26:47;6.33;;;5.67;;
1382;SDS011;685;47.196;11.880;2022-12-07T15:29:14;7.53;;;4.97;;
1382;SDS011;685;47.196;11.880;2022-12-07T15:31:42;7.80;;;6.47;;
1382;SDS011;685;47.196;11.880;2022-12-07T15:34:09;6.90;;;5.60;;
1382;SDS011;685;47.196;11.880;2022-12-07T15:36:36;6.97;;;6.10;;
1382;SDS011;685;47.196;11.880;2022-12-07T15:39:03;7.43;;;5.93;;
1382;SDS011;685;47.196;11.880;2022-12-07T15:41:30;9.30;;;6.40;;
1382;SDS011;685;47.196;11.880;2022-12-07T15:43:58;9.83;;;7.13;;
1382;SDS011;685;47.196;11.880;2022-12-07T15:46:42;8.93;;;7.10;;
1382;SDS011;685;47.196;11.880;2022-12-07T15:49:12;10.30;;;8.80;;
1382;SDS011;685;47.196;11.880;2022-12-07T15:51:41;10.43;;;7.53;;
1382;SDS011;685;47.196;11.880;2022-12-07T15:54:11;9.90;;;7.67;;
1382;SDS011;685;47.196;11.880;2022-12-07T15:56:41;9.63;;;7.47;;
1382;SDS011;685;47.196;11.880;2022-12-07T15:59:09;6.77;;;6.10;;
1382;SDS011;685;47.196;11.880;2022-12-07T16:01:36;9.20;;;7.90;;